Tiempo atmosférico en la estación meteorológica de Figueres, Girona (47 m.)



Fecha
DESCASC
Temp. máxima en grados centígrados (hora)
DESCASC
Temp. mínima en grados centígrados (hora)
DESCASC
Temp. media en grados centígrados
DESCASC
Racha de viento máxima en m/sg (hora)
DESCASC
Velocidad máxima media en intervalos de 10 minutos(hora)
DESCASC
Precipitaciones diarias en mm
DESCASC
Precipitaciones de 00:00 a 06:00 en mm
DESCASC
Precipitaciones de 06:00 a 12:00 en mm
DESCASC
Precipitaciones de 12:00 a 18:00 en mm
DESCASC
Precipitaciones de 18:00 a 24:00 en mm
DESCASC
22-04-2019 17.6 (15:10) 13.2 (23:00) 15.4 7.78 (15:50) 3.33 (07:40) 7.6 0 0.2 0 7.4
21-04-2019 18.2 (18:10) 12.5 (00:20) 15.4 8.33 (10:50) 3.61 (01:30) 0.2 0 0.2 0 0
20-04-2019 20.2 (13:10) 12.4 (23:40) 16.3 7.5 (14:30) 3.61 (14:10) 3.2 0 0 0 3.2
19-04-2019 21.4 (15:10) 11.8 (03:30) 16.6 8.33 (13:20) 3.89 (13:20) 0 0 0 0 0
18-04-2019 18.9 (14:00) 12.5 (00:00) 15.7 6.11 (14:10) 2.78 (15:40) 0 0 0 0 0
17-04-2019 19.7 (15:00) 9.1 (00:00) 14.4 11.11 (14:50) 4.44 (15:10) 0 0 0 0 0
16-04-2019 17.2 (15:20) 10.1 (00:00) 13.7 7.5 (11:50) 3.61 (11:40) 4.8 4.8 0 0 0
15-04-2019 16.9 (14:50) 9 (00:00) 12.9 7.78 (00:30) 3.89 (00:20) 0 0 0 0 0
14-04-2019 16.6 (11:40) 7.4 (00:00) 12 6.67 (23:40) 3.33 (12:30) 0 0 0 0 0
13-04-2019 21.6 (14:20) 6.4 (00:00) 14 7.5 (18:10) 3.89 (17:40) 0 0 0 0 0
12-04-2019 21.1 (15:40) 13.4 (00:00) 17.3 13.61 (01:40) 6.11 (01:40) 0 0 0 0 0
11-04-2019 17.3 (16:00) 13.2 (00:00) 15.2 14.17 (21:40) 7.5 (21:40) 0 0 0 0 0
10-04-2019 19.6 (17:20) 6.5 (00:00) 13.1 14.17 (18:30) 6.11 (18:30) 0 0 0 0 0
09-04-2019 17.4 (14:40) 9.1 (00:00) 13.3 5.83 (07:40) 2.78 (15:20) 8 0 0 8 0
08-04-2019 18.3 (14:40) 5.7 (00:00) 12 6.39 (15:50) 3.33 (15:50) 0.8 0 0 0 0.8
07-04-2019 17.2 (16:10) 6.5 (00:00) 11.9 10.83 (11:10) 4.72 (11:20) 0 0 0 0 0
06-04-2019 18.2 (15:50) 8.3 (00:00) 13.3 9.44 (15:20) 5.28 (15:20) 12.8 12.8 0 0 0
05-04-2019 18.4 (15:00) 3.9 (00:00) 11.1 11.39 (18:20) 5.28 (14:50) 0.2 0 0 0 0.2
04-04-2019 14.9 (15:50) 6.3 (00:00) 10.6 6.94 (18:30) 3.61 (18:30) 0 0 0 0 0
03-04-2019 12.9 (11:10) 6.9 (00:00) 9.9 11.11 (20:00) 4.44 (20:00) 18.6 0 1 6.6 11
02-04-2019 19.2 (14:30) 8.2 (00:00) 13.7 6.39 (17:30) 3.06 (14:50) 4.6 0 0 0 4.6
01-04-2019 19.5 (14:40) 8.3 (00:00) 13.9 6.94 (17:20) 3.33 (17:20) 0 0 0 0 0
31-03-2019 16.6 (14:10) 5.6 (00:00) 11.1 6.11 (16:50) 2.78 (18:10) 0 0 0 0 0
30-03-2019 17 (14:10) 4 (00:00) 10.5 9.44 (14:00) 4.17 (14:00) 0 0 0 0 0
29-03-2019 18.8 (13:10) 5.4 (00:00) 12.1 8.89 (14:00) 4.17 (14:00) 0 0 0 0 0
28-03-2019 18 (12:10) 6.3 (00:00) 12.2 7.5 (15:00) 3.61 (12:20) 0 0 0 0 0
27-03-2019 21 (15:20) 10.1 (00:00) 15.6 11.67 (11:30) 4.72 (11:30) 0 0 0 0 0
26-03-2019 18.3 (14:10) 11.3 (00:00) 14.8 18.61 (12:40) 8.61 (10:40) 0 0 0 0 0
25-03-2019 21.6 (15:00) 12.5 (00:00) 17.1 17.5 (23:40) 8.33 (23:10) 0 0 0 0 0

Gráficas

Temp. máximas Temp. mínimas Temp. medias Precipitaciones Rachas de viento máximas Velocidades máximas media en intervalos de 10 minutos

Datos horarios

Fecha y hora oficial Temperatura (ºC) Velocidad del viento (km/h) Dirección del viento Racha (km/h) Dirección de racha Precipitación (mm) Presión (hPa) Tendencia (hPa) Humedad (%)
2019-04-23 23:00:00 14.1 3 Sur 11 Sur 0 -- -- 86
2019-04-23 22:00:00 14.9 5 Sur 13 Sur 0 -- -- 83
2019-04-23 21:00:00 16.1 6 Sur 23 Oeste 0 -- -- 77
2019-04-23 20:00:00 17.5 9 Oeste 24 Sudoeste 0 -- -- 71
2019-04-23 19:00:00 19.4 10 Sudoeste 24 Oeste 0 -- -- 65
2019-04-23 18:00:00 19.2 6 Sudeste 15 Sudeste 0 -- -- 77
2019-04-23 17:00:00 17.1 7 Sudeste 18 Sudeste 0 -- -- 86
2019-04-23 16:00:00 17.9 6 Sur 14 Sudeste 0 -- -- 83
2019-04-23 15:00:00 17.7 6 Sur 13 Sur 0 -- -- 81
2019-04-23 14:00:00 16.6 6 Sudeste 13 Sur 0 -- -- 88
2019-04-23 13:00:00 15.3 3 Este 7 Este 0 -- -- 92
2019-04-23 12:00:00 14.5 0 Calma 9 Nordeste 0.6 -- -- 96
2019-04-23 11:00:00 13.9 5 Nordeste 17 Nordeste 0.2 -- -- 97
2019-04-23 10:00:00 13.5 6 Nordeste 19 Nordeste 1.8 -- -- 98
2019-04-23 09:00:00 13 10 Nordeste 21 Norte 3.2 -- -- 98
2019-04-23 08:00:00 12.8 8 Nordeste 18 Nordeste 12.4 -- -- 98
2019-04-23 07:00:00 12.8 9 Nordeste 23 Nordeste 12.6 -- -- 98
2019-04-23 06:00:00 12.8 10 Nordeste 24 Nordeste 12 -- -- 97
2019-04-23 05:00:00 12.8 11 Nordeste 24 Nordeste 4.8 -- -- 96
2019-04-23 04:00:00 12.6 9 Nordeste 18 Norte 4 -- -- 97
2019-04-23 03:00:00 12.8 9 Nordeste 22 Nordeste 2.8 -- -- 96
2019-04-23 02:00:00 13 9 Nordeste 21 Nordeste 2 -- -- 96
2019-04-23 01:00:00 13.1 8 Nordeste 23 Nordeste 2.2 -- -- 95
2019-04-23 00:00:00 13.3 6 Nordeste 20 Nordeste 2.6 -- -- 94
2019-04-22 23:00:00 13.2 8 Nordeste 22 Nordeste 3.2 -- -- 94
2019-04-22 22:00:00 13.4 12 Nordeste 24 Nordeste 0.8 -- -- 91
2019-04-22 21:00:00 15 9 Este 21 Nordeste 0.8 -- -- 79
2019-04-22 20:00:00 16.5 6 Este 13 Nordeste 0 -- -- 63
2019-04-22 19:00:00 16.7 4 Este 16 Este 0 -- -- 61
2019-04-22 18:00:00 16.9 6 Este 22 Este 0 -- -- 58
2019-04-22 17:00:00 16.9 6 Nordeste 16 Este 0 -- -- 60
2019-04-22 16:00:00 17.5 6 Este 28 Este 0 -- -- 58
2019-04-22 15:00:00 17.5 8 Sudeste 25 Sudeste 0 -- -- 57
2019-04-22 14:00:00 17.1 7 Este 27 Este 0 -- -- 60
2019-04-22 13:00:00 16.9 6 Este 22 Este 0 -- -- 58
2019-04-22 12:00:00 16.2 9 Este 20 Este 0 -- -- 65
2019-04-22 11:00:00 16.1 9 Este 19 Este 0.2 -- -- 66
2019-04-22 10:00:00 15.9 7 Este 16 Nordeste 0 -- -- 66
2019-04-22 09:00:00 16.5 5 Este 19 Este 0 -- -- 59
2019-04-22 08:00:00 16 7 Este 22 Este 0 -- -- 59
2019-04-22 07:00:00 14.7 8 Nordeste 15 Nordeste 0 -- -- 64
2019-04-22 06:00:00 14.8 5 Nordeste 12 Este 0 -- -- 64
2019-04-22 05:00:00 15.2 8 Este 20 Este 0 -- -- 64
2019-04-22 04:00:00 15.4 6 Nordeste 11 Nordeste 0 -- -- 60
2019-04-22 03:00:00 15.6 4 Nordeste 18 Este 0 -- -- 59
2019-04-22 02:00:00 16.3 8 Este 27 Este 0 -- -- 56
2019-04-22 01:00:00 15.6 6 Nordeste 19 Nordeste 0 -- -- 58
2019-04-22 00:00:00 15.5 9 Nordeste 27 Nordeste 0 -- -- 60
2019-04-21 23:00:00 15.2 7 Nordeste 15 Norte 0 -- -- 64
2019-04-21 22:00:00 15.5 6 Nordeste 18 Nordeste 0 -- -- 67
2019-04-21 21:00:00 15.7 6 Nordeste 22 Este 0 -- -- 67
2019-04-21 20:00:00 16.8 9 Este 24 Este 0 -- -- 63
2019-04-21 19:00:00 17.6 9 Este 27 Este 0 -- -- 60
2019-04-21 18:00:00 18 10 Este 27 Este 0 -- -- 59
2019-04-21 17:00:00 17.7 12 Este 25 Este 0 -- -- 58
2019-04-21 16:00:00 17.3 10 Nordeste 26 Este 0 -- -- 60
2019-04-21 15:00:00 17.8 9 Este 26 Este 0 -- -- 56
2019-04-21 14:00:00 17.1 8 Este 25 Norte 0 -- -- 56
2019-04-21 13:00:00 16 9 Nordeste 22 Este 0 -- -- 58
2019-04-21 12:00:00 15.8 12 Este 27 Sudeste 0 -- -- 56
2019-04-21 11:00:00 16.2 13 Este 30 Sudeste 0 -- -- 60
2019-04-21 10:00:00 16.2 7 Este 26 Este 0 -- -- 63
2019-04-21 09:00:00 15.2 10 Este 26 Nordeste 0 -- -- 66
2019-04-21 08:00:00 14.3 10 Nordeste 24 Nordeste 0.2 -- -- 71
2019-04-21 07:00:00 14.4 9 Nordeste 21 Nordeste 0 -- -- 68
2019-04-21 06:00:00 14.2 8 Nordeste 24 Nordeste 0 -- -- 67
2019-04-21 05:00:00 14.3 10 Nordeste 21 Norte 0 -- -- 66
2019-04-21 04:00:00 14.5 9 Nordeste 17 Nordeste 0 -- -- 64
2019-04-21 03:00:00 14.4 7 Nordeste 26 Nordeste 0 -- -- 66
2019-04-21 02:00:00 13.9 10 Nordeste 26 Nordeste 0 -- -- 70
2019-04-21 01:00:00 13.2 12 Nordeste 26 Nordeste 0 -- -- 75
2019-04-21 00:00:00 12.7 12 Nordeste 22 Nordeste 0.6 -- -- 81
2019-04-20 23:00:00 12.6 6 Norte 17 Norte 1.2 -- -- 84
2019-04-20 22:00:00 13.6 6 Norte 13 Oeste 1.4 -- -- 83
2019-04-20 21:00:00 16 7 Sudoeste 13 Nordeste 0 -- -- 62
2019-04-20 20:00:00 16.9 6 Este 14 Nordeste 0 -- -- 50
2019-04-20 19:00:00 17.1 4 Este 16 Este 0 -- -- 53
2019-04-20 18:00:00 16.8 5 Nordeste 18 Sudeste 0 -- -- 61
2019-04-20 17:00:00 17.1 9 Este 26 Este 0 -- -- 61
2019-04-20 16:00:00 18.8 9 Sudeste 23 Este 0 -- -- 52
2019-04-20 15:00:00 18.4 13 Este 27 Este 0 -- -- 50
2019-04-20 14:00:00 19.4 12 Este 26 Sudeste 0 -- -- 47
2019-04-20 13:00:00 20.1 8 Sudeste 21 Sudeste 0 -- -- 44
2019-04-20 12:00:00 19.6 8 Sudeste 19 Norte 0 -- -- 46
2019-04-20 11:00:00 18.8 10 Este 23 Este 0 -- -- 51
2019-04-20 10:00:00 17.2 8 Este 19 Este 0 -- -- 58
2019-04-20 09:00:00 15.9 7 Nordeste 18 Nordeste 0 -- -- 55
2019-04-20 08:00:00 14.8 7 Nordeste 16 Nordeste 0 -- -- 58
2019-04-20 07:00:00 14.5 7 Nordeste 15 Nordeste 0 -- -- 56
2019-04-20 06:00:00 14.4 8 Nordeste 15 Nordeste 0 -- -- 54
2019-04-20 05:00:00 14.8 6 Nordeste 14 Nordeste 0 -- -- 53
2019-04-20 04:00:00 14.1 7 Nordeste 14 Norte 0 -- -- 53
2019-04-20 03:00:00 13 5 Nordeste 12 Este 0 -- -- 60
2019-04-20 02:00:00 15.2 4 Nordeste 12 Norte 0 -- -- 50
2019-04-20 01:00:00 15.6 7 Nordeste 13 Nordeste 0 -- -- 49
2019-04-20 00:00:00 15.8 7 Nordeste 15 Nordeste 0 -- -- 50
2019-04-19 23:00:00 15.6 7 Nordeste 13 Nordeste 0 -- -- 55
2019-04-19 22:00:00 16.5 6 Nordeste 14 Nordeste 0 -- -- 54
2019-04-19 21:00:00 17.1 7 Nordeste 13 Nordeste 0 -- -- 56
2019-04-19 20:00:00 18.5 6 Este 16 Sudeste 0 -- -- 52
2019-04-19 19:00:00 19.4 6 Sudeste 21 Este 0 -- -- 45
2019-04-19 18:00:00 19.4 8 Sudeste 26 Sudeste 0 -- -- 47
2019-04-19 17:00:00 19.7 12 Este 26 Sudeste 0 -- -- 51
2019-04-19 16:00:00 20.6 9 Este 27 Sudeste 0 -- -- 46
2019-04-19 15:00:00 21.1 9 Sudeste 30 Sur 0 -- -- 39
2019-04-19 14:00:00 20.6 10 Sudeste 30 Sur 0 -- -- 41
2019-04-19 13:00:00 20 12 Sudeste 29 Este 0 -- -- 46
2019-04-19 12:00:00 19.5 8 Sudeste 20 Este 0 -- -- 49
2019-04-19 11:00:00 19.1 5 Este 18 Este 0 -- -- 54
2019-04-19 10:00:00 17.3 6 Este 16 Nordeste 0 -- -- 63
2019-04-19 09:00:00 15.2 5 Nordeste 15 Nordeste 0 -- -- 70
2019-04-19 08:00:00 13.8 6 Nordeste 14 Nordeste 0 -- -- 74
2019-04-19 07:00:00 13.5 4 Este 11 Nordeste 0 -- -- 71
2019-04-19 06:00:00 13 4 Este 14 Nordeste 0 -- -- 69
2019-04-19 05:00:00 13.3 6 Este 18 Nordeste 0 -- -- 69
2019-04-19 04:00:00 12.5 6 Nordeste 12 Nordeste 0 -- -- 70
2019-04-19 03:00:00 12.2 6 Nordeste 12 Nordeste 0 -- -- 72
2019-04-19 02:00:00 12.9 0 Calma 6 Nordeste 0 -- -- 73
2019-04-19 01:00:00 13.9 0 Calma 8 Este 0 -- -- 67
2019-04-19 00:00:00 14.9 3 Nordeste 12 Nordeste 0 -- -- 61
2019-04-18 23:00:00 15.1 5 Nordeste 15 Nordeste 0 -- -- 62
2019-04-18 22:00:00 15 8 Nordeste 19 Norte 0 -- -- 66
2019-04-18 21:00:00 15.4 5 Este 15 Nordeste 0 -- -- 70
2019-04-18 20:00:00 16.1 3 Este 12 Este 0 -- -- 69
2019-04-18 19:00:00 16.5 5 Este 12 Sudeste 0 -- -- 69
2019-04-18 18:00:00 16.8 7 Este 16 Nordeste 0 -- -- 68
2019-04-18 17:00:00 18.1 6 Sudeste 18 Sudoeste 0 -- -- 61
2019-04-18 16:00:00 18.7 9 Sur 17 Sur 0 -- -- 50
2019-04-18 15:00:00 18.2 7 Sur 22 Este 0 -- -- 55
2019-04-18 14:00:00 18.9 8 Sudeste 19 Sudeste 0 -- -- 49
2019-04-18 13:00:00 17.8 4 Sur 11 Sudoeste 0 -- -- 63
2019-04-18 12:00:00 16.7 4 Sur 10 Sur 0 -- -- 67
2019-04-18 11:00:00 16 4 Oeste 8 Sur 0 -- -- 71
2019-04-18 10:00:00 14.5 3 Sur 8 Sudoeste 0 -- -- 85
2019-04-18 09:00:00 13.4 3 Este 8 Este 0 -- -- 93
2019-04-18 08:00:00 12.9 0 Calma 6 Norte 0 -- -- 95
2019-04-18 07:00:00 12.7 0 Calma 4 Noroeste 0 -- -- 95
2019-04-18 06:00:00 12.6 0 Calma 5 Noroeste 0 -- -- 95
2019-04-18 05:00:00 12.5 0 Calma 3 Sur 0 -- -- 94
2019-04-18 04:00:00 12.7 0 Calma 5 Noroeste 0 -- -- 93
2019-04-18 03:00:00 13 3 Oeste 10 Sudoeste 0 -- -- 92
2019-04-18 02:00:00 13.7 5 Sur 10 Sudoeste 0 -- -- 89
2019-04-18 01:00:00 14 6 Sur 14 Sudoeste 0 -- -- 88
2019-04-18 00:00:00 14 6 Sudoeste 13 Sudoeste 0 -- -- 88
2019-04-17 23:00:00 14.2 7 Sudoeste 15 Sudoeste 0 -- -- 87
2019-04-17 22:00:00 14.3 7 Sudoeste 17 Sur 0 -- -- 87
2019-04-17 21:00:00 14.6 7 Sur 21 Sur 0 -- -- 86
2019-04-17 20:00:00 15.2 6 Sur 23 Sur 0 -- -- 82
2019-04-17 19:00:00 17 9 Sur 25 Sur 0 -- -- 71
2019-04-17 18:00:00 17.2 9 Sur 25 Sudoeste 0 -- -- 71
2019-04-17 17:00:00 17.7 12 Sur 28 Sudoeste 0 -- -- 69
2019-04-17 16:00:00 18.3 14 Sur 35 Sur 0 -- -- 65
2019-04-17 15:00:00 19.7 14 Sudoeste 40 Sur 0 -- -- 62
2019-04-17 14:00:00 19.1 15 Sur 34 Sur 0 -- -- 64
2019-04-17 13:00:00 19 13 Sudoeste 30 Sur 0 -- -- 63
2019-04-17 12:00:00 17.6 10 Sudoeste 23 Sudoeste 0 -- -- 68
2019-04-17 11:00:00 13.9 0 Calma 11 Noroeste 0 -- -- 86
2019-04-17 10:00:00 11.4 4 Oeste 11 Oeste 0 -- -- 92
2019-04-17 09:00:00 10.5 4 Oeste 6 Oeste 0 -- -- 97
2019-04-17 08:00:00 9.4 3 Noroeste 6 Noroeste 0 -- -- 98
2019-04-17 07:00:00 9.2 3 Noroeste 6 Noroeste 0 -- -- 97
2019-04-17 06:00:00 9.6 3 Sudeste 6 Sudeste 0 -- -- 96
2019-04-17 05:00:00 9.8 0 Calma 5 Norte 0 -- -- 94
2019-04-17 04:00:00 10.2 5 Noroeste 7 Noroeste 0 -- -- 93
2019-04-17 03:00:00 11 0 Calma 5 Noroeste 0 -- -- 91
2019-04-17 02:00:00 11.9 0 Calma 5 Noroeste 0 -- -- 90
2019-04-17 01:00:00 12.4 0 Calma 5 Sur 0 -- -- 88
2019-04-17 00:00:00 12.8 3 Oeste 8 Oeste 0 -- -- 87
2019-04-16 23:00:00 13 5 Oeste 10 Sudoeste 0 -- -- 87
2019-04-16 22:00:00 13.1 5 Sudoeste 10 Sudoeste 0 -- -- 86
2019-04-16 21:00:00 13.3 7 Sur 12 Sur 0 -- -- 85
2019-04-16 20:00:00 14.4 6 Sudeste 10 Sudeste 0 -- -- 72
2019-04-16 19:00:00 15 6 Sudeste 14 Este 0 -- -- 76
2019-04-16 18:00:00 15.9 5 Este 13 Sudeste 0 -- -- 74
2019-04-16 17:00:00 15.5 8 Sudeste 16 Sudeste 0 -- -- 76
2019-04-16 16:00:00 16.6 8 Sudeste 22 Este 0 -- -- 71
2019-04-16 15:00:00 16.9 9 Sudeste 18 Sudeste 0 -- -- 74
2019-04-16 14:00:00 16 3 Nordeste 19 Nordeste 0 -- -- 74
2019-04-16 13:00:00 15.8 7 Norte 22 Norte 0 -- -- 71
2019-04-16 12:00:00 15.5 8 Nordeste 27 Norte 0 -- -- 71
2019-04-16 11:00:00 14.3 8 Este 17 Este 0 -- -- 78
2019-04-16 10:00:00 12.8 4 Sudoeste 6 Sur 0 -- -- 86
2019-04-16 09:00:00 11.5 0 Calma 6 Norte 0 -- -- 89
2019-04-16 08:00:00 10.7 3 Noroeste 8 Oeste 0 -- -- 93
2019-04-16 07:00:00 10.7 2 Noroeste 5 Nordeste 0 -- -- 92
2019-04-16 06:00:00 10.4 5 Noroeste 10 Noroeste 0 -- -- 92
2019-04-16 05:00:00 10.3 3 Norte 9 Noroeste 0.6 -- -- 92
2019-04-16 04:00:00 10.3 5 Norte 14 Nordeste 2.6 -- -- 89
2019-04-16 03:00:00 11.3 3 Norte 9 Nordeste 1.4 -- -- 88
2019-04-16 02:00:00 12.2 3 Norte 13 Nordeste 0.2 -- -- 78
2019-04-16 01:00:00 12 9 Nordeste 15 Nordeste 0 -- -- 74
2019-04-16 00:00:00 12.3 4 Sudoeste 8 Sur 0 -- -- 73
2019-04-15 23:00:00 12.6 4 Sur 15 Sudoeste 0 -- -- 66
2019-04-15 22:00:00 12.7 8 Sudoeste 18 Sudoeste 0 -- -- 65
2019-04-15 21:00:00 12.9 8 Sur 19 Sur 0 -- -- 63
2019-04-15 20:00:00 13.8 9 Sudoeste 20 Sur 0 -- -- 50
2019-04-15 19:00:00 14.6 9 Sudoeste 25 Sur 0 -- -- 42
2019-04-15 18:00:00 15 12 Sur 24 Sur 0 -- -- 42
2019-04-15 17:00:00 15.2 9 Sur 27 Sudeste 0 -- -- 52
2019-04-15 16:00:00 16 12 Sur 28 Sudeste 0 -- -- 43
2019-04-15 15:00:00 16.8 12 Sur 23 Sur 0 -- -- 51
2019-04-15 14:00:00 16 10 Sur 25 Sur 0 -- -- 53
2019-04-15 13:00:00 15.7 11 Sur 21 Sudoeste 0 -- -- 55
2019-04-15 12:00:00 15.2 6 Sur 13 Sudeste 0 -- -- 53
2019-04-15 11:00:00 14.6 5 Sudeste 14 Sudeste 0 -- -- 56
2019-04-15 10:00:00 13.3 4 Este 10 Nordeste 0 -- -- 58
2019-04-15 09:00:00 11 4 Noroeste 13 Noroeste 0 -- -- 66
2019-04-15 08:00:00 9.7 4 Noroeste 8 Nordeste 0 -- -- 71
2019-04-15 07:00:00 9.1 4 Norte 8 Norte 0 -- -- 71
2019-04-15 06:00:00 9 0 Calma 6 Sur 0 -- -- 73
2019-04-15 05:00:00 10.4 3 Sudoeste 10 Este 0 -- -- 66
2019-04-15 04:00:00 11.4 0 Calma 7 Oeste 0 -- -- 63
2019-04-15 03:00:00 12.1 3 Noroeste 13 Sudeste 0 -- -- 58
2019-04-15 02:00:00 13.8 6 Sudeste 15 Este 0 -- -- 49
2019-04-15 01:00:00 14.7 8 Nordeste 28 Nordeste 0 -- -- 50
2019-04-15 00:00:00 14.1 8 Nordeste 24 Nordeste 0 -- -- 51
2019-04-14 23:00:00 12.3 4 Noroeste 8 Noroeste 0 -- -- 73
2019-04-14 22:00:00 12.2 4 Sudoeste 8 Sur 0 -- -- 78
2019-04-14 21:00:00 12.8 5 Sur 9 Sur 0 -- -- 72
2019-04-14 20:00:00 14.3 5 Sur 10 Sur 0 -- -- 66
2019-04-14 19:00:00 14.7 4 Sur 14 Sudoeste 0 -- -- 62
2019-04-14 18:00:00 15.1 5 Sur 14 Sudeste 0 -- -- 61
2019-04-14 17:00:00 16 6 Sur 13 Sur 0 -- -- 57
2019-04-14 16:00:00 15.5 8 Sur 18 Sudoeste 0 -- -- 57
2019-04-14 15:00:00 15.4 9 Sur 21 Sur 0 -- -- 57
2019-04-14 14:00:00 15.4 12 Sur 22 Sudoeste 0 -- -- 57
2019-04-14 13:00:00 15.6 10 Sudoeste 21 Sudoeste 0 -- -- 57
2019-04-14 12:00:00 16.4 9 Sudoeste 19 Sur 0 -- -- 56
2019-04-14 11:00:00 15.5 4 Sudeste 14 Sudeste 0 -- -- 57
2019-04-14 10:00:00 14.4 4 Sudoeste 10 Sur 0 -- -- 62
2019-04-14 09:00:00 11.3 3 Este 7 Este 0 -- -- 67
2019-04-14 08:00:00 8 2 Noroeste 8 Noroeste 0 -- -- 74
2019-04-14 07:00:00 7.8 4 Noroeste 9 Noroeste 0 -- -- 72
2019-04-14 06:00:00 8.2 0 Calma 5 Sudoeste 0 -- -- 72
2019-04-14 05:00:00 9.2 4 Noroeste 7 Noroeste 0 -- -- 68
2019-04-14 04:00:00 8.8 0 Calma 4 Oeste 0 -- -- 70
2019-04-14 03:00:00 10.2 0 Calma 8 Noroeste 0 -- -- 64
2019-04-14 02:00:00 10.2 5 Noroeste 12 Noroeste 0 -- -- 64
2019-04-14 01:00:00 11.7 2 Noroeste 5 Noroeste 0 -- -- 72
2019-04-14 00:00:00 13.2 0 Calma 6 Noroeste 0 -- -- 74
2019-04-13 23:00:00 14 4 Noroeste 6 Noroeste 0 -- -- 70
2019-04-13 22:00:00 15 3 Sur 9 Este 0 -- -- 70
2019-04-13 21:00:00 16.7 3 Este 8 Sur 0 -- -- 60
2019-04-13 20:00:00 18.4 6 Sudoeste 13 Sur 0 -- -- 54
2019-04-13 19:00:00 20.4 8 Sur 27 Sur 0 -- -- 43
2019-04-13 18:00:00 20.9 9 Sur 23 Sudoeste 0 -- -- 36
2019-04-13 17:00:00 21.3 9 Sur 19 Sur 0 -- -- 35
2019-04-13 16:00:00 21 12 Sur 25 Sudeste 0 -- -- 39
2019-04-13 15:00:00 21.2 12 Sudeste 25 Sudeste 0 -- -- 34
2019-04-13 14:00:00 21.4 5 Sudoeste 21 Noroeste 0 -- -- 30
2019-04-13 13:00:00 19.8 6 Noroeste 14 Noroeste 0 -- -- 31
2019-04-13 12:00:00 18.6 5 Sudoeste 12 Oeste 0 -- -- 36
2019-04-13 11:00:00 16.7 5 Sudoeste 9 Oeste 0 -- -- 42
2019-04-13 10:00:00 13.2 3 Noroeste 13 Oeste 0 -- -- 52
2019-04-13 09:00:00 9 5 Oeste 10 Noroeste 0 -- -- 63
2019-04-13 08:00:00 6.5 7 Noroeste 14 Noroeste 0 -- -- 68
2019-04-13 07:00:00 6.5 8 Noroeste 16 Noroeste 0 -- -- 70
2019-04-13 06:00:00 6.9 7 Noroeste 13 Noroeste 0 -- -- 63
2019-04-13 05:00:00 7.4 7 Noroeste 14 Oeste 0 -- -- 63
2019-04-13 04:00:00 8.4 6 Noroeste 13 Noroeste 0 -- -- 64
2019-04-13 03:00:00 9.4 6 Noroeste 21 Norte 0 -- -- 49
2019-04-13 02:00:00 14.6 8 Norte 26 Nordeste 0 -- -- 34
2019-04-13 01:00:00 13.7 8 Nordeste 15 Nordeste 0 -- -- 34
2019-04-13 00:00:00 14.9 6 Norte 20 Norte 0 -- -- 31
2019-04-12 23:00:00 15 7 Norte 22 Norte 0 -- -- 37
2019-04-12 22:00:00 15.6 10 Norte 37 Norte 0 -- -- 44
2019-04-12 21:00:00 16.5 13 Nordeste 38 Nordeste 0 -- -- 42
2019-04-12 20:00:00 17.7 17 Nordeste 40 Nordeste 0 -- -- 37
2019-04-12 19:00:00 19.4 20 Nordeste 46 Este 0 -- -- 34
2019-04-12 18:00:00 20.3 17 Nordeste 46 Este 0 -- -- 32
2019-04-12 17:00:00 20.8 17 Nordeste 44 Nordeste 0 -- -- 29
2019-04-12 16:00:00 21 18 Nordeste 41 Norte 0 -- -- 26
2019-04-12 15:00:00 20.7 14 Nordeste 36 Nordeste 0 -- -- 29
2019-04-12 14:00:00 20.1 18 Nordeste 46 Nordeste 0 -- -- 29
2019-04-12 13:00:00 19.5 18 Nordeste 43 Nordeste 0 -- -- 32
2019-04-12 12:00:00 18.2 16 Nordeste 47 Nordeste 0 -- -- 36
2019-04-12 11:00:00 17.2 21 Nordeste 37 Nordeste 0 -- -- 39
2019-04-12 10:00:00 15.9 6 Norte 30 Nordeste 0 -- -- 43
2019-04-12 09:00:00 14 7 Norte 32 Este 0 -- -- 56
2019-04-12 08:00:00 13.7 9 Nordeste 27 Nordeste 0 -- -- 48
2019-04-12 07:00:00 13.4 9 Nordeste 32 Nordeste 0 -- -- 52
2019-04-12 06:00:00 13.5 12 Nordeste 35 Nordeste 0 -- -- 53
2019-04-12 05:00:00 13.7 15 Nordeste 39 Nordeste 0 -- -- 54
2019-04-12 04:00:00 13.6 17 Nordeste 35 Nordeste 0 -- -- 57
2019-04-12 03:00:00 14.3 17 Nordeste 42 Nordeste 0 -- -- 56
2019-04-12 02:00:00 15 20 Nordeste 49 Norte 0 -- -- 54
2019-04-12 01:00:00 15.2 17 Nordeste 45 Nordeste 0 -- -- 52
2019-04-12 00:00:00 15.7 13 Nordeste 41 Nordeste 0 -- -- 50
2019-04-11 23:00:00 15.5 13 Norte 50 Nordeste 0 -- -- 50
2019-04-11 22:00:00 15.4 19 Nordeste 51 Nordeste 0 -- -- 52
2019-04-11 21:00:00 15.8 17 Norte 37 Norte 0 -- -- 50
2019-04-11 20:00:00 16.1 14 Norte 44 Nordeste 0 -- -- 49
2019-04-11 19:00:00 16 15 Nordeste 42 Norte 0 -- -- 48
2019-04-11 18:00:00 16.3 15 Nordeste 40 Nordeste 0 -- -- 48
2019-04-11 17:00:00 16.2 21 Nordeste 44 Nordeste 0 -- -- 47
2019-04-11 16:00:00 17.3 19 Nordeste 41 Nordeste 0 -- -- 43
2019-04-11 15:00:00 16.7 18 Nordeste 43 Nordeste 0 -- -- 43
2019-04-11 14:00:00 16.9 19 Nordeste 41 Norte 0 -- -- 42
2019-04-11 13:00:00 16 17 Nordeste 38 Nordeste 0 -- -- 42
2019-04-11 12:00:00 15.5 12 Nordeste 35 Nordeste 0 -- -- 41
2019-04-11 11:00:00 15.2 12 Nordeste 31 Nordeste 0 -- -- 40
2019-04-11 10:00:00 15.7 12 Nordeste 35 Nordeste 0 -- -- 38
2019-04-11 09:00:00 15.1 14 Norte 45 Norte 0 -- -- 34
2019-04-11 08:00:00 13.3 14 Nordeste 37 Nordeste 0 -- -- 43
2019-04-11 07:00:00 13.5 14 Nordeste 38 Nordeste 0 -- -- 46
2019-04-11 06:00:00 13.5 15 Nordeste 32 Nordeste 0 -- -- 51
2019-04-11 05:00:00 13.5 14 Nordeste 40 Nordeste 0 -- -- 59
2019-04-11 04:00:00 13.7 12 Nordeste 31 Nordeste 0 -- -- 58
2019-04-11 03:00:00 14.3 15 Nordeste 43 Nordeste 0 -- -- 53
2019-04-11 02:00:00 14 10 Nordeste 28 Norte 0 -- -- 53
2019-04-11 01:00:00 14.5 12 Nordeste 34 Nordeste 0 -- -- 51
2019-04-11 00:00:00 14.5 10 Nordeste 30 Nordeste 0 -- -- 51
2019-04-10 23:00:00 15.1 14 Nordeste 40 Nordeste 0 -- -- 48
2019-04-10 22:00:00 15.6 12 Nordeste 36 Norte 0 -- -- 47
2019-04-10 21:00:00 15.1 9 Nordeste 42 Norte 0 -- -- 50
2019-04-10 20:00:00 14.8 12 Nordeste 41 Nordeste 0 -- -- 53
2019-04-10 19:00:00 16 16 Norte 51 Nordeste 0 -- -- 50
2019-04-10 18:00:00 19.4 14 Nordeste 35 Nordeste 0 -- -- 36
2019-04-10 17:00:00 19.3 18 Nordeste 47 Nordeste 0 -- -- 34
2019-04-10 16:00:00 19.3 18 Nordeste 45 Nordeste 0 -- -- 39
2019-04-10 15:00:00 18.7 18 Nordeste 45 Nordeste 0 -- -- 40
2019-04-10 14:00:00 18.9 19 Nordeste 43 Nordeste 0 -- -- 42
2019-04-10 13:00:00 19 21 Nordeste 42 Nordeste 0 -- -- 42
2019-04-10 12:00:00 18.2 18 Nordeste 39 Nordeste 0 -- -- 44
2019-04-10 11:00:00 17.4 11 Nordeste 31 Nordeste 0 -- -- 47
2019-04-10 10:00:00 15.9 9 Nordeste 21 Nordeste 0 -- -- 53
2019-04-10 09:00:00 12.9 8 Norte 22 Nordeste 0 -- -- 61
2019-04-10 08:00:00 7.3 6 Noroeste 14 Noroeste 0 -- -- 78
2019-04-10 07:00:00 6.5 6 Noroeste 13 Noroeste 0 -- -- 83
2019-04-10 06:00:00 7.5 5 Noroeste 14 Noroeste 0 -- -- 79
2019-04-10 05:00:00 7.8 6 Noroeste 15 Noroeste 0 -- -- 80
2019-04-10 04:00:00 8 3 Noroeste 17 Noroeste 0 -- -- 80
2019-04-10 03:00:00 7.9 4 Noroeste 15 Noroeste 0 -- -- 83
2019-04-10 02:00:00 7.8 7 Noroeste 12 Noroeste 0 -- -- 87
2019-04-10 01:00:00 8.8 6 Norte 11 Noroeste 0 -- -- 87
2019-04-10 00:00:00 9.1 3 Norte 10 Noroeste 0 -- -- 88
2019-04-09 23:00:00 10.3 3 Noroeste 9 Noroeste 0 -- -- 88
2019-04-09 22:00:00 11.6 5 Noroeste 8 Norte 0 -- -- 90
2019-04-09 21:00:00 11.8 2 Norte 8 Noroeste 0 -- -- 81
2019-04-09 20:00:00 12.7 2 Oeste 11 Oeste 0 -- -- 75
2019-04-09 19:00:00 13.4 7 Noroeste 19 Oeste 0 -- -- 70
2019-04-09 18:00:00 13.4 8 Sudoeste 16 Noroeste 0 -- -- 79
2019-04-09 17:00:00 13.1 8 Sudoeste 15 Oeste 0.4 -- -- 85
2019-04-09 16:00:00 13.2 8 Oeste 19 Sudoeste 7.4 -- -- 79
2019-04-09 15:00:00 16.8 9 Sudoeste 19 Sudoeste 0 -- -- 62
2019-04-09 14:00:00 17.3 5 Sudoeste 14 Sur 0 -- -- 61
2019-04-09 13:00:00 15.9 4 Este 13 Nordeste 0.2 -- -- 65
2019-04-09 12:00:00 14.4 5 Nordeste 14 Nordeste 0 -- -- 70
2019-04-09 11:00:00 14 5 Este 12 Nordeste 0 -- -- 72
2019-04-09 10:00:00 11.7 4 Noroeste 8 Norte 0 -- -- 82
2019-04-09 09:00:00 11.2 4 Sudoeste 13 Nordeste 0 -- -- 85
2019-04-09 08:00:00 11.1 7 Nordeste 21 Nordeste 0 -- -- 85
2019-04-09 07:00:00 10.4 6 Noroeste 17 Noroeste 0 -- -- 90
2019-04-09 06:00:00 10.6 3 Sudoeste 6 Noroeste 0 -- -- 92
2019-04-09 05:00:00 10.7 0 Calma 8 Noroeste 0 -- -- 91
2019-04-09 04:00:00 11.3 4 Oeste 9 Oeste 0 -- -- 89
2019-04-09 03:00:00 12 3 Norte 10 Este 0 -- -- 89
2019-04-09 02:00:00 12.3 4 Este 9 Noroeste 0 -- -- 90
2019-04-09 01:00:00 12.5 3 Noroeste 8 Oeste 0 -- -- 91
2019-04-09 00:00:00 12.8 2 Sudoeste 8 Noroeste 0.8 -- -- 88
2019-04-08 23:00:00 13.4 6 Noroeste 12 Noroeste 0 -- -- 81
2019-04-08 22:00:00 13.8 3 Este 9 Este 0 -- -- 73
2019-04-08 21:00:00 13.9 3 Sudoeste 8 Sur 0 -- -- 68
2019-04-08 20:00:00 14.6 5 Sudoeste 13 Sur 0 -- -- 70
2019-04-08 19:00:00 15.9 6 Sur 19 Sur 0 -- -- 66
2019-04-08 18:00:00 17 8 Sur 19 Sur 0 -- -- 61
2019-04-08 17:00:00 16.8 10 Sur 21 Sudoeste 0 -- -- 61
2019-04-08 16:00:00 17.7 12 Sur 23 Sur 0 -- -- 60
2019-04-08 15:00:00 17.6 8 Sur 17 Sudeste 0 -- -- 56
2019-04-08 14:00:00 17.4 6 Sudeste 17 Sur 0 -- -- 52
2019-04-08 13:00:00 16.5 8 Sudeste 16 Sudeste 0 -- -- 54
2019-04-08 12:00:00 15.8 6 Este 15 Nordeste 0 -- -- 56
2019-04-08 11:00:00 14.4 3 Este 9 Sur 0 -- -- 57
2019-04-08 10:00:00 11.8 4 Este 8 Este 0 -- -- 71
2019-04-08 09:00:00 7.8 3 Norte 6 Noroeste 0 -- -- 84
2019-04-08 08:00:00 5.8 0 Calma 6 Noroeste 0 -- -- 88
2019-04-08 07:00:00 6 0 Calma 5 Noroeste 0 -- -- 88
2019-04-08 06:00:00 5.7 2 Norte 9 Norte 0 -- -- 87
2019-04-08 05:00:00 6.3 0 Calma 6 Norte 0 -- -- 86
2019-04-08 04:00:00 6.3 2 Sudoeste 10 Sudoeste 0 -- -- 84
2019-04-08 03:00:00 6.7 6 Noroeste 11 Noroeste 0 -- -- 84
2019-04-08 02:00:00 7.3 3 Noroeste 8 Oeste 0 -- -- 81
2019-04-08 01:00:00 9.2 2 Este 9 Noroeste 0 -- -- 80
2019-04-08 00:00:00 9.8 5 Noroeste 9 Norte 0 -- -- 77
2019-04-07 23:00:00 10.3 6 Noroeste 10 Noroeste 0 -- -- 74
2019-04-07 22:00:00 11.4 5 Nordeste 12 Nordeste 0 -- -- 74
2019-04-07 21:00:00 12 4 Sudoeste 14 Sudoeste 0 -- -- 73
2019-04-07 20:00:00 13.6 5 Sudoeste 19 Oeste 0 -- -- 66
2019-04-07 19:00:00 15.3 9 Oeste 23 Nordeste 0 -- -- 58
2019-04-07 18:00:00 16.9 7 Nordeste 28 Nordeste 0 -- -- 41
2019-04-07 17:00:00 17 12 Nordeste 33 Nordeste 0 -- -- 43
2019-04-07 16:00:00 17.1 13 Este 33 Este 0 -- -- 45
2019-04-07 15:00:00 16.4 14 Este 34 Este 0 -- -- 50
2019-04-07 14:00:00 16.5 13 Este 34 Este 0 -- -- 48
2019-04-07 13:00:00 15.7 12 Nordeste 29 Este 0 -- -- 51
2019-04-07 12:00:00 15.1 12 Este 39 Nordeste 0 -- -- 52
2019-04-07 11:00:00 14.2 14 Nordeste 32 Nordeste 0 -- -- 54
2019-04-07 10:00:00 12.3 16 Nordeste 35 Nordeste 0 -- -- 64
2019-04-07 09:00:00 10.7 12 Nordeste 31 Nordeste 0 -- -- 73
2019-04-07 08:00:00 8.7 12 Nordeste 22 Nordeste 0 -- -- 80
2019-04-07 07:00:00 8.4 7 Nordeste 18 Nordeste 0 -- -- 81
2019-04-07 06:00:00 7.9 6 Nordeste 18 Nordeste 0 -- -- 83
2019-04-07 05:00:00 6.5 2 Norte 7 Norte 0 -- -- 88
2019-04-07 04:00:00 7.1 0 Calma 12 Este 0 -- -- 88
2019-04-07 03:00:00 7.2 4 Este 9 Este 0 -- -- 87
2019-04-07 02:00:00 7.5 0 Calma 6 Sudoeste 0 -- -- 87
2019-04-07 01:00:00 8.2 4 Sudeste 8 Sudeste 0 -- -- 85
2019-04-07 00:00:00 8.6 3 Norte 9 Noroeste 0 -- -- 82
2019-04-06 23:00:00 10 4 Noroeste 13 Este 0 -- -- 75
2019-04-06 22:00:00 10.9 5 Nordeste 13 Este 0 -- -- 72
2019-04-06 21:00:00 11.7 5 Este 15 Este 0 -- -- 71
2019-04-06 20:00:00 12.7 6 Este 18 Este 0 -- -- 66
2019-04-06 19:00:00 14 7 Sudeste 18 Sudeste 0 -- -- 62
2019-04-06 18:00:00 15 8 Este 18 Nordeste 0 -- -- 59
2019-04-06 17:00:00 15.6 8 Nordeste 29 Oeste 0 -- -- 56
2019-04-06 16:00:00 17.8 14 Oeste 34 Oeste 0 -- -- 40
2019-04-06 15:00:00 18 13 Oeste 29 Oeste 0 -- -- 41
2019-04-06 14:00:00 16.8 13 Oeste 31 Oeste 0 -- -- 46
2019-04-06 13:00:00 15.4 11 Oeste 24 Oeste 0 -- -- 54
2019-04-06 12:00:00 15.1 10 Noroeste 23 Sudoeste 0 -- -- 53
2019-04-06 11:00:00 14 12 Oeste 23 Oeste 0 -- -- 59
2019-04-06 10:00:00 12.4 7 Oeste 18 Noroeste 0 -- -- 72
2019-04-06 09:00:00 9.5 0 Calma 11 Noroeste 0 -- -- 90
2019-04-06 08:00:00 8.3 6 Noroeste 11 Noroeste 0 -- -- 93
2019-04-06 07:00:00 8.6 4 Oeste 8 Oeste 0 -- -- 94
2019-04-06 06:00:00 9.5 2 Noroeste 15 Sudoeste 0 -- -- 94
2019-04-06 05:00:00 10.2 8 Oeste 19 Oeste 0 -- -- 92
2019-04-06 04:00:00 10.7 5 Oeste 13 Oeste 0.8 -- -- 94
2019-04-06 03:00:00 11.3 9 Oeste 24 Oeste 6.8 -- -- 94
2019-04-06 02:00:00 11.7 5 Oeste 12 Oeste 4.4 -- -- 94
2019-04-06 01:00:00 12.1 6 Sudoeste 15 Sudoeste 0.8 -- -- 92
2019-04-06 00:00:00 12.7 8 Sudoeste 19 Oeste 0.2 -- -- 88
2019-04-05 23:00:00 12.9 2 Oeste 8 Oeste 0 -- -- 78
2019-04-05 22:00:00 13 4 Oeste 21 Oeste 0 -- -- 70
2019-04-05 21:00:00 13.5 9 Sudoeste 31 Sudoeste 0 -- -- 67
2019-04-05 20:00:00 14.3 13 Sudoeste 36 Oeste 0 -- -- 72
2019-04-05 19:00:00 15.3 17 Oeste 41 Oeste 0 -- -- 68
2019-04-05 18:00:00 15.8 16 Sudoeste 35 Oeste 0 -- -- 70
2019-04-05 17:00:00 14.5 17 Sudoeste 36 Oeste 0 -- -- 72
2019-04-05 16:00:00 15.9 18 Oeste 36 Oeste 0 -- -- 64
2019-04-05 15:00:00 18.4 15 Oeste 34 Sudoeste 0 -- -- 54
2019-04-05 14:00:00 18.1 17 Sudoeste 38 Sudoeste 0 -- -- 56
2019-04-05 13:00:00 17.3 12 Oeste 30 Sudoeste 0 -- -- 52
2019-04-05 12:00:00 16 9 Oeste 33 Norte 0 -- -- 52
2019-04-05 11:00:00 14.3 13 Sudoeste 27 Oeste 0 -- -- 58
2019-04-05 10:00:00 9.1 3 Sur 9 Sudoeste 0 -- -- 78
2019-04-05 09:00:00 6.3 3 Sur 6 Sur 0 -- -- 85
2019-04-05 08:00:00 3.9 3 Sur 9 Sudeste 0 -- -- 92
2019-04-05 07:00:00 4.1 3 Sudoeste 7 Noroeste 0 -- -- 90
2019-04-05 06:00:00 4.1 5 Noroeste 11 Noroeste 0 -- -- 91
2019-04-05 05:00:00 4.4 4 Noroeste 10 Oeste 0 -- -- 90
2019-04-05 04:00:00 4.8 2 Sudoeste 8 Sur 0 -- -- 89
2019-04-05 03:00:00 4.8 4 Noroeste 7 Noroeste 0 -- -- 89
2019-04-05 02:00:00 5.4 2 Noroeste 6 Oeste 0 -- -- 87
2019-04-05 01:00:00 6.6 0 Calma 7 Noroeste 0 -- -- 83
2019-04-05 00:00:00 7.7 2 Noroeste 5 Nordeste 0 -- -- 80
2019-04-04 23:00:00 8.6 2 Norte 7 Sudoeste 0 -- -- 79
2019-04-04 22:00:00 9.2 4 Oeste 11 Sudoeste 0 -- -- 76
2019-04-04 21:00:00 10 5 Sudoeste 18 Sudoeste 0 -- -- 72
2019-04-04 20:00:00 11.4 6 Sur 16 Sur 0 -- -- 66
2019-04-04 19:00:00 12 8 Sur 25 Sur 0 -- -- 61
2019-04-04 18:00:00 13.1 12 Sur 23 Sudoeste 0 -- -- 57
2019-04-04 17:00:00 13.4 10 Sudoeste 22 Sudoeste 0 -- -- 56
2019-04-04 16:00:00 14.8 9 Sudoeste 18 Sur 0 -- -- 43
2019-04-04 15:00:00 14.2 8 Sur 15 Sudoeste 0 -- -- 44
2019-04-04 14:00:00 13.5 6 Sur 17 Sur 0 -- -- 46
2019-04-04 13:00:00 12.9 6 Sudoeste 14 Sur 0 -- -- 51
2019-04-04 12:00:00 11.9 5 Sudeste 12 Este 0 -- -- 57
2019-04-04 11:00:00 11.1 5 Sudeste 10 Sudeste 0 -- -- 60
2019-04-04 10:00:00 9.9 3 Sudeste 10 Nordeste 0 -- -- 66
2019-04-04 09:00:00 7.9 5 Nordeste 13 Nordeste 0 -- -- 74
2019-04-04 08:00:00 6.4 3 Norte 15 Nordeste 0 -- -- 82
2019-04-04 07:00:00 6.8 5 Nordeste 10 Noroeste 0 -- -- 79
2019-04-04 06:00:00 7 2 Oeste 8 Oeste 0 -- -- 81
2019-04-04 05:00:00 6.8 4 Noroeste 9 Norte 0 -- -- 89
2019-04-04 04:00:00 6.8 5 Norte 12 Noroeste 0 -- -- 83
2019-04-04 03:00:00 7 6 Noroeste 12 Norte 0 -- -- 80
2019-04-04 02:00:00 6.9 6 Norte 13 Noroeste 0 -- -- 82
2019-04-04 01:00:00 6.7 4 Oeste 9 Sudoeste 0 -- -- 91
2019-04-04 00:00:00 6.9 3 Oeste 11 Norte 0 -- -- 89
2019-04-03 23:00:00 6.9 3 Nordeste 20 Nordeste 1.2 -- -- 85
2019-04-03 22:00:00 6.9 10 Nordeste 30 Nordeste 2.2 -- -- 87
2019-04-03 21:00:00 7 15 Nordeste 31 Nordeste 3 -- -- 90
2019-04-03 20:00:00 7.5 16 Nordeste 40 Nordeste 3.2 -- -- 88
2019-04-03 19:00:00 8.3 11 Nordeste 32 Nordeste 1.4 -- -- 85
2019-04-03 18:00:00 9.9 13 Nordeste 28 Norte 0 -- -- 74
2019-04-03 17:00:00 10.5 5 Nordeste 18 Este 0.2 -- -- 84
2019-04-03 16:00:00 10.6 6 Sudeste 18 Este 0 -- -- 83
2019-04-03 15:00:00 10.9 8 Este 16 Norte 0 -- -- 86
2019-04-03 14:00:00 10 12 Nordeste 27 Nordeste 4.8 -- -- 88
2019-04-03 13:00:00 11 8 Nordeste 24 Nordeste 1.6 -- -- 86
2019-04-03 12:00:00 11.9 6 Nordeste 19 Nordeste 0 -- -- 80
2019-04-03 11:00:00 12.7 3 Sudeste 9 Sudeste 0 -- -- 91
2019-04-03 10:00:00 11.1 2 Sur 7 Sur 0 -- -- 96
2019-04-03 09:00:00 10.6 2 Sur 6 Sur 1 -- -- 97
2019-04-03 08:00:00 10.3 0 Calma 5 Noroeste 0 -- -- 96
2019-04-03 07:00:00 10.5 2 Sur 5 Sur 0 -- -- 95
2019-04-03 06:00:00 10.5 0 Calma 7 Noroeste 0 -- -- 96
2019-04-03 05:00:00 10.6 5 Oeste 10 Sudoeste 0 -- -- 96
2019-04-03 04:00:00 11 0 Calma 6 Sur 0 -- -- 96
2019-04-03 03:00:00 11.4 3 Sudeste 9 Este 0 -- -- 95
2019-04-03 02:00:00 11.5 3 Este 7 Este 0 -- -- 94
2019-04-03 01:00:00 11.5 2 Noroeste 8 Oeste 0 -- -- 93
2019-04-03 00:00:00 11.6 0 Calma 9 Norte 0 -- -- 94
2019-04-02 23:00:00 11.8 3 Nordeste 8 Norte 0 -- -- 91
2019-04-02 22:00:00 11.8 3 Oeste 9 Oeste 0 -- -- 91
2019-04-02 21:00:00 11.8 5 Oeste 15 Oeste 0.2 -- -- 92
2019-04-02 20:00:00 12 3 Oeste 11 Sudoeste 1.6 -- -- 91
2019-04-02 19:00:00 12.3 3 Nordeste 23 Norte 2.8 -- -- 86
2019-04-02 18:00:00 14.6 8 Nordeste 23 Nordeste 0 -- -- 72
2019-04-02 17:00:00 15.4 5 Este 12 Sudeste 0 -- -- 74
2019-04-02 16:00:00 15.6 6 Sur 18 Sudeste 0 -- -- 72
2019-04-02 15:00:00 17.8 10 Sur 21 Sur 0 -- -- 62
2019-04-02 14:00:00 18.4 10 Sur 22 Sudoeste 0 -- -- 57
2019-04-02 13:00:00 18.1 8 Sur 14 Sur 0 -- -- 56
2019-04-02 12:00:00 16.9 6 Sudoeste 15 Sudoeste 0 -- -- 58
2019-04-02 11:00:00 15.4 4 Sur 11 Sur 0 -- -- 65
2019-04-02 10:00:00 13.1 0 Calma 5 Noroeste 0 -- -- 76
2019-04-02 09:00:00 9.2 3 Noroeste 6 Noroeste 0 -- -- 87
2019-04-02 08:00:00 8.6 0 Calma 6 Este 0 -- -- 86
2019-04-02 07:00:00 9.1 3 Norte 9 Noroeste 0 -- -- 89
2019-04-02 06:00:00 8.3 2 Noroeste 6 Noroeste 0 -- -- 89
2019-04-02 05:00:00 8.7 0 Calma 5 Oeste 0 -- -- 90
2019-04-02 04:00:00 9.2 0 Calma 7 Noroeste 0 -- -- 90
2019-04-02 03:00:00 9.2 0 Calma 4 Sudoeste 0 -- -- 87
2019-04-02 02:00:00 9.9 0 Calma 4 Sudeste 0 -- -- 85
2019-04-02 01:00:00 11 0 Calma 4 Noroeste 0 -- -- 86
2019-04-02 00:00:00 11.5 3 Noroeste 5 Noroeste 0 -- -- 84
2019-04-01 23:00:00 12.3 0 Calma 9 Nordeste 0 -- -- 84
2019-04-01 22:00:00 12.9 3 Nordeste 10 Nordeste 0 -- -- 81
2019-04-01 21:00:00 13.1 4 Este 9 Sudeste 0 -- -- 83
2019-04-01 20:00:00 14 5 Sudeste 15 Sur 0 -- -- 75
2019-04-01 19:00:00 15.8 7 Sudeste 18 Sudeste 0 -- -- 68
2019-04-01 18:00:00 16.5 9 Sur 25 Sur 0 -- -- 61
2019-04-01 17:00:00 17.5 10 Sur 24 Sur 0 -- -- 55
2019-04-01 16:00:00 18.5 10 Sudeste 22 Sur 0 -- -- 47
2019-04-01 15:00:00 19.1 10 Sur 21 Sur 0 -- -- 47
2019-04-01 14:00:00 19.1 8 Sudeste 16 Sudeste 0 -- -- 41
2019-04-01 13:00:00 18 6 Sudeste 12 Sudeste 0 -- -- 45
2019-04-01 12:00:00 15.5 5 Sur 10 Sur 0 -- -- 60
2019-04-01 11:00:00 14.7 3 Sudeste 7 Sudeste 0 -- -- 70
2019-04-01 10:00:00 13.1 3 Sur 5 Sur 0 -- -- 77
2019-04-01 09:00:00 9.6 2 Sudoeste 6 Sur 0 -- -- 86
2019-04-01 08:00:00 8.9 0 Calma 6 Noroeste 0 -- -- 88
2019-04-01 07:00:00 8.8 0 Calma 4 Noroeste 0 -- -- 89
2019-04-01 06:00:00 8.8 3 Noroeste 8 Noroeste 0 -- -- 92
2019-04-01 05:00:00 8.4 4 Noroeste 7 Oeste 0 -- -- 90
2019-04-01 04:00:00 8.7 0 Calma 6 Sur 0 -- -- 89
2019-04-01 03:00:00 9.2 0 Calma 6 Noroeste 0 -- -- 90
2019-04-01 02:00:00 9.9 0 Calma 5 Noroeste 0 -- -- 86
2019-04-01 01:00:00 10.8 0 Calma 5 Noroeste 0 -- -- 84
2019-04-01 00:00:00 11.6 0 Calma 6 Norte 0 -- -- 85
2019-03-31 23:00:00 11.9 4 Nordeste 6 Norte 0 -- -- 85
2019-03-31 22:00:00 12.1 0 Calma 6 Sudoeste 0 -- -- 85
2019-03-31 21:00:00 12.4 3 Sudoeste 8 Sur 0 -- -- 82
2019-03-31 20:00:00 13.4 5 Sur 15 Sur 0 -- -- 77
2019-03-31 19:00:00 15 8 Sur 18 Sur 0 -- -- 68
2019-03-31 18:00:00 15.8 7 Sur 22 Sur 0 -- -- 63
2019-03-31 17:00:00 15.8 9 Sudeste 22 Sur 0 -- -- 62
2019-03-31 16:00:00 15.7 10 Sur 19 Sur 0 -- -- 64
2019-03-31 15:00:00 16.1 8 Sudeste 21 Sur 0 -- -- 64
2019-03-31 14:00:00 16.4 8 Sur 20 Sur 0 -- -- 62
2019-03-31 13:00:00 15.9 5 Sudoeste 12 Sur 0 -- -- 60
2019-03-31 12:00:00 15.1 3 Sur 10 Sudoeste 0 -- -- 67
2019-03-31 11:00:00 12.4 3 Noroeste 8 Oeste 0 -- -- 75
2019-03-31 10:00:00 10.1 2 Sudoeste 7 Oeste 0 -- -- 85
2019-03-31 09:00:00 7.8 0 Calma 8 Sur 0 -- -- 87
2019-03-31 08:00:00 6.8 0 Calma 9 Sur 0 -- -- 90
2019-03-31 07:00:00 6.5 0 Calma 4 Noroeste 0 -- -- 90
2019-03-31 06:00:00 5.9 3 Noroeste 9 Noroeste 0 -- -- 91
2019-03-31 05:00:00 6 0 Calma 8 Noroeste 0 -- -- 88
2019-03-31 03:00:00 7.3 0 Calma 5 Sur 0 -- -- 86
2019-03-31 01:00:00 8.2 0 Calma 4 Sudeste 0 -- -- 84
2019-03-31 00:00:00 9 0 Calma 4 Sudoeste 0 -- -- 82
2019-03-30 23:00:00 10.1 0 Calma 4 Oeste 0 -- -- 80
2019-03-30 22:00:00 11.3 2 Oeste 4 Noroeste 0 -- -- 78
2019-03-30 21:00:00 11.4 0 Calma 6 Sur 0 -- -- 79
2019-03-30 20:00:00 12 4 Sur 13 Este 0 -- -- 76
2019-03-30 19:00:00 13.1 5 Sur 22 Sur 0 -- -- 71
2019-03-30 18:00:00 14.5 11 Sur 30 Sudeste 0 -- -- 65
2019-03-30 17:00:00 15.3 14 Sur 31 Sudeste 0 -- -- 63
2019-03-30 16:00:00 16.3 13 Sur 33 Sudeste 0 -- -- 60
2019-03-30 15:00:00 16.8 13 Sur 32 Sur 0 -- -- 58
2019-03-30 14:00:00 16.6 15 Sudeste 34 Sudeste 0 -- -- 55
2019-03-30 13:00:00 16.1 10 Sur 25 Sudeste 0 -- -- 60
2019-03-30 12:00:00 16.2 8 Sur 25 Sur 0 -- -- 58
2019-03-30 11:00:00 15.3 7 Sur 18 Oeste 0 -- -- 58
2019-03-30 10:00:00 13.5 4 Sudoeste 8 Sudeste 0 -- -- 57
2019-03-30 09:00:00 10.4 0 Calma 4 Sur 0 -- -- 65
2019-03-30 08:00:00 6 0 Calma 5 Noroeste 0 -- -- 79
2019-03-30 07:00:00 4.1 0 Calma 6 Oeste 0 -- -- 84
2019-03-30 06:00:00 4.4 4 Noroeste 7 Noroeste 0 -- -- 82
2019-03-30 05:00:00 4.5 0 Calma 3 Oeste 0 -- -- 82
2019-03-30 04:00:00 5.2 0 Calma 8 Noroeste 0 -- -- 82
2019-03-30 03:00:00 5.3 4 Noroeste 9 Oeste 0 -- -- 82
2019-03-30 02:00:00 6.8 2 Noroeste 7 Noroeste 0 -- -- 79
2019-03-30 01:00:00 7.2 0 Calma 4 Oeste 0 -- -- 75
2019-03-30 00:00:00 7.3 3 Noroeste 4 Noroeste 0 -- -- 75
2019-03-29 23:00:00 8.8 0 Calma 5 Noroeste 0 -- -- 73
2019-03-29 22:00:00 10.7 3 Noroeste 9 Nordeste 0 -- -- 70
2019-03-29 21:00:00 12.2 2 Este 8 Este 0 -- -- 68
2019-03-29 20:00:00 12.9 3 Sudeste 10 Sudeste 0 -- -- 64
2019-03-29 19:00:00 14.2 5 Sudeste 14 Sur 0 -- -- 54
2019-03-29 18:00:00 15.9 8 Sudeste 23 Sur 0 -- -- 48
2019-03-29 17:00:00 16.8 10 Sur 25 Sur 0 -- -- 40
2019-03-29 16:00:00 17 12 Sur 28 Sur 0 -- -- 47
2019-03-29 15:00:00 17.3 13 Sudeste 31 Sur 0 -- -- 42
2019-03-29 14:00:00 17.8 15 Sur 32 Sur 0 -- -- 36
2019-03-29 13:00:00 18.7 10 Sudeste 25 Sur 0 -- -- 36
2019-03-29 12:00:00 18.2 10 Sur 24 Sur 0 -- -- 40
2019-03-29 11:00:00 17.1 8 Sur 16 Sudeste 0 -- -- 43
2019-03-29 10:00:00 14.7 2 Sudoeste 7 Sudeste 0 -- -- 52
2019-03-29 09:00:00 12.3 3 Este 7 Este 0 -- -- 59
2019-03-29 08:00:00 9 2 Norte 11 Noroeste 0 -- -- 70
2019-03-29 07:00:00 5.6 6 Noroeste 9 Oeste 0 -- -- 80
2019-03-29 06:00:00 5.8 0 Calma 4 Este 0 -- -- 80
2019-03-29 05:00:00 6.4 2 Sur 6 Este 0 -- -- 74
2019-03-29 04:00:00 6.9 2 Norte 7 Noroeste 0 -- -- 75
2019-03-29 03:00:00 7 2 Oeste 8 Este 0 -- -- 74
2019-03-29 02:00:00 7.7 4 Noroeste 11 Noroeste 0 -- -- 71
2019-03-29 01:00:00 8 3 Oeste 8 Oeste 0 -- -- 68
2019-03-29 00:00:00 8.9 4 Noroeste 7 Noroeste 0 -- -- 68
2019-03-28 23:00:00 9.9 2 Sur 6 Noroeste 0 -- -- 65
2019-03-28 22:00:00 11.4 0 Calma 7 Nordeste 0 -- -- 59
2019-03-28 21:00:00 12.1 0 Calma 9 Sudeste 0 -- -- 62
2019-03-28 20:00:00 13.6 2 Sudoeste 4 Sur 0 -- -- 45
2019-03-28 19:00:00 14.4 3 Sudoeste 12 Sudoeste 0 -- -- 42
2019-03-28 18:00:00 15.7 6 Sur 15 Sudoeste 0 -- -- 41
2019-03-28 17:00:00 15.9 10 Sudoeste 20 Sur 0 -- -- 43
2019-03-28 16:00:00 16.7 9 Sudeste 22 Sur 0 -- -- 47
2019-03-28 15:00:00 16.8 12 Sur 27 Sur 0 -- -- 48
2019-03-28 14:00:00 17.9 9 Sur 22 Este 0 -- -- 44
2019-03-28 13:00:00 17.5 10 Sur 24 Sur 0 -- -- 44
2019-03-28 12:00:00 17.7 8 Sur 15 Sur 0 -- -- 36
2019-03-28 11:00:00 16.8 3 Oeste 11 Sur 0 -- -- 38
2019-03-28 10:00:00 15.6 4 Sudeste 9 Sudeste 0 -- -- 40
2019-03-28 09:00:00 11.8 0 Calma 5 Sudoeste 0 -- -- 49
2019-03-28 08:00:00 8 0 Calma 5 Oeste 0 -- -- 58
2019-03-28 07:00:00 6.3 3 Noroeste 8 Norte 0 -- -- 62
2019-03-28 06:00:00 6.6 3 Noroeste 14 Oeste 0 -- -- 61
2019-03-28 05:00:00 6.6 9 Noroeste 14 Noroeste 0 -- -- 61
2019-03-28 04:00:00 7.1 5 Noroeste 13 Noroeste 0 -- -- 59
2019-03-28 03:00:00 9 6 Noroeste 10 Noroeste 0 -- -- 52
2019-03-28 02:00:00 10.5 4 Noroeste 7 Noroeste 0 -- -- 50
2019-03-28 01:00:00 12.8 3 Nordeste 17 Este 0 -- -- 45
2019-03-28 00:00:00 13.4 6 Este 17 Este 0 -- -- 41
2019-03-27 23:00:00 13.7 6 Este 16 Sudeste 0 -- -- 40
2019-03-27 22:00:00 14.5 5 Nordeste 23 Nordeste 0 -- -- 35
2019-03-27 21:00:00 12.8 4 Sur 15 Sur 0 -- -- 54
2019-03-27 20:00:00 13.5 4 Sudeste 15 Sudoeste 0 -- -- 51
2019-03-27 19:00:00 15.2 6 Sudeste 15 Sur 0 -- -- 47
2019-03-27 18:00:00 17.1 8 Sudoeste 19 Sudoeste 0 -- -- 42
2019-03-27 17:00:00 18.3 9 Sur 34 Este 0 -- -- 41
2019-03-27 16:00:00 20.6 13 Nordeste 39 Nordeste 0 -- -- 21
2019-03-27 15:00:00 20.8 14 Este 35 Este 0 -- -- 18
2019-03-27 14:00:00 20.4 12 Nordeste 28 Nordeste 0 -- -- 16
2019-03-27 13:00:00 19.6 16 Norte 37 Nordeste 0 -- -- 18
2019-03-27 12:00:00 18.7 12 Nordeste 42 Norte 0 -- -- 21
2019-03-27 11:00:00 16.7 15 Norte 39 Nordeste 0 -- -- 27
2019-03-27 10:00:00 15.5 13 Norte 27 Norte 0 -- -- 30
2019-03-27 09:00:00 13.8 11 Nordeste 24 Norte 0 -- -- 30
2019-03-27 08:00:00 11.7 8 Norte 20 Nordeste 0 -- -- 37
2019-03-27 07:00:00 10.3 8 Nordeste 26 Norte 0 -- -- 40
2019-03-27 06:00:00 10.8 11 Norte 27 Norte 0 -- -- 37
2019-03-27 05:00:00 10.5 4 Norte 17 Nordeste 0 -- -- 36
2019-03-27 04:00:00 11.4 3 Noroeste 21 Este 0 -- -- 33
2019-03-27 03:00:00 12.1 6 Este 19 Este 0 -- -- 32
2019-03-27 02:00:00 13.2 8 Este 29 Este 0 -- -- 29
2019-03-27 01:00:00 13.6 12 Este 36 Nordeste 0 -- -- 29
2019-03-27 00:00:00 14.3 13 Nordeste 39 Nordeste 0 -- -- 28
2019-03-26 23:00:00 14.7 17 Nordeste 41 Norte 0 -- -- 28
2019-03-26 22:00:00 14.9 18 Nordeste 46 Nordeste 0 -- -- 26
2019-03-26 21:00:00 15.3 16 Nordeste 41 Norte 0 -- -- 25
2019-03-26 20:00:00 15.5 17 Nordeste 43 Nordeste 0 -- -- 24
2019-03-26 19:00:00 16.3 16 Nordeste 37 Norte 0 -- -- 23
2019-03-26 18:00:00 17.5 18 Nordeste 45 Nordeste 0 -- -- 23
2019-03-26 17:00:00 17.9 21 Nordeste 51 Nordeste 0 -- -- 21
2019-03-26 16:00:00 18.1 18 Nordeste 55 Norte 0 -- -- 21
2019-03-26 15:00:00 18 20 Nordeste 53 Nordeste 0 -- -- 20
2019-03-26 14:00:00 18 20 Nordeste 55 Norte 0 -- -- 17
2019-03-26 13:00:00 18 23 Nordeste 67 Nordeste 0 -- -- 16
2019-03-26 12:00:00 17.5 28 Nordeste 64 Norte 0 -- -- 16
2019-03-26 11:00:00 16.4 28 Nordeste 61 Nordeste 0 -- -- 18
2019-03-26 10:00:00 15.8 21 Nordeste 59 Norte 0 -- -- 20
2019-03-26 09:00:00 14.5 26 Nordeste 61 Norte 0 -- -- 24
2019-03-26 08:00:00 12.8 23 Nordeste 57 Nordeste 0 -- -- 29
2019-03-26 07:00:00 11.3 17 Nordeste 53 Nordeste 0 -- -- 33
2019-03-26 06:00:00 11.3 10 Nordeste 40 Nordeste 0 -- -- 37
2019-03-26 05:00:00 12.2 17 Nordeste 52 Nordeste 0 -- -- 31
2019-03-26 04:00:00 11.6 10 Nordeste 30 Nordeste 0 -- -- 39
2019-03-26 03:00:00 11.6 14 Nordeste 50 Norte 0 -- -- 42
2019-03-26 02:00:00 11.8 18 Nordeste 53 Nordeste 0 -- -- 41
2019-03-26 01:00:00 12.4 18 Nordeste 50 Nordeste 0 -- -- 41
2019-03-26 00:00:00 13.7 18 Nordeste 63 Nordeste 0 -- -- 44
2019-03-25 23:00:00 14.8 25 Nordeste 55 Norte 0 -- -- 41
2019-03-25 22:00:00 15.1 20 Nordeste 53 Nordeste 0 -- -- 41
2019-03-25 21:00:00 15.2 20 Nordeste 53 Nordeste 0 -- -- 41
2019-03-25 20:00:00 15.3 19 Nordeste 59 Norte 0 -- -- 44
2019-03-25 19:00:00 16 27 Nordeste 54 Nordeste 0 -- -- 43
2019-03-25 18:00:00 18.1 20 Nordeste 60 Norte 0 -- -- 35
2019-03-25 17:00:00 19.6 17 Norte 46 Nordeste 0 -- -- 34
2019-03-25 16:00:00 20.6 22 Nordeste 45 Nordeste 0 -- -- 32
2019-03-25 15:00:00 21.6 13 Nordeste 32 Norte 0 -- -- 30
2019-03-25 14:00:00 20.9 12 Nordeste 33 Nordeste 0 -- -- 38
2019-03-25 13:00:00 21.4 9 Norte 24 Norte 0 -- -- 40
2019-03-25 12:00:00 21.1 10 Norte 28 Nordeste 0 -- -- 39
2019-03-25 11:00:00 20.4 8 Norte 30 Nordeste 0 -- -- 36
2019-03-25 10:00:00 18.5 14 Nordeste 30 Nordeste 0 -- -- 42
2019-03-25 09:00:00 17.1 15 Nordeste 34 Nordeste 0 -- -- 43
2019-03-25 08:00:00 15.4 14 Nordeste 28 Nordeste 0 -- -- 45
2019-03-25 07:00:00 14.8 16 Norte 38 Nordeste 0 -- -- 45
2019-03-25 06:00:00 15.1 17 Nordeste 34 Nordeste 0 -- -- 45
2019-03-25 05:00:00 14.4 10 Norte 21 Nordeste 0 -- -- 46
2019-03-25 04:00:00 13.4 5 Noroeste 19 Norte 0 -- -- 50
2019-03-25 03:00:00 14.2 5 Norte 13 Norte 0 -- -- 46
2019-03-25 02:00:00 16.6 6 Noroeste 29 Noroeste 0 -- -- 41
2019-03-25 01:00:00 17.8 14 Nordeste 33 Nordeste 0 -- -- 37
2019-03-25 00:00:00 18.5 15 Nordeste 36 Nordeste 0 -- -- 36